Terminal Aerodrome Forecast
Issued by NWS Mobile, AL

Home | Current Version | Previous Version | Text Only | Print | Product List | Glossary On
Versions: 1 2 3 4 5 6 7 8 9 10 11 12 13 14 15 16 17 18 19 20 21 22 23 24 25 26 27 28 29 30 31 32
462
FTUS44 KMOB 302346
TAFPNS
TAF
KPNS 302346Z 0100/0124 14006KT P6SM OVC023
     FM010200 16011KT P6SM VCTS SCT015 BKN024CB BKN040
      TEMPO 0102/0104 4SM TSRA OVC015CB
     FM010600 17008KT 3SM BR OVC007
     FM011300 17013KT P6SM OVC050=

USA.gov is the U.S. government's official web portal to all federal, state and local government web resources and services.